Forside
METAR-TAF:

METAR-TAF

Lufthavne :

Port Meadville Airport

Meadville, Pennsylvania, USA

Breddekreds: 41-37-35N, længdekreds: 080-12-53W, højde: 427 m

Aktuelle vejr

Denne rapport blev lavet for 35 minutter siden, kl. 20:53 UTC
Vind 7 kt fra sydvest
Temperatur 0°C
Fugtighed 86%
Tryk 1008 hPa
Sigt: 16.1 km
Overskyet i en højde af 700 ft

METAR: KGKJ 262053Z AUTO 22007KT 10SM OVC007 00/M02 A2977 RMK AO2 SLP094 60000 T00001017 56006 $

Tid: 16:28 (21:28 UTC)


TAF: fraværende

Vejrobservationer og prognoser fra mere end 4000 lufthavne (METAR og TAF).

De gule og røde prikker repræsenterer de meteorologiske stationer.

Flyt musen over at se navnet på stationen.

Så klik over at se vejr observationer og prognoser.

At skifte det kort: Klik på de grønne knapper med et sort kors for at zoome ind; på den grønne knap med en bindestreg for at zoome ud; eller på de grønne pile for tilstødende kort.


METAR-TAF: